createdAt,value
2023-03-20T00:02:25.868Z,19.80
2023-03-20T00:04:54.309Z,20.20
2023-03-20T00:07:22.537Z,19.00
2023-03-20T00:09:51.310Z,21.10
2023-03-20T00:12:26.442Z,20.50
2023-03-20T00:14:54.741Z,19.60
2023-03-20T00:17:23.007Z,21.60
2023-03-20T00:19:51.594Z,21.30
2023-03-20T00:22:19.962Z,20.80
2023-03-20T00:24:48.918Z,23.90
2023-03-20T00:27:18.258Z,22.30
2023-03-20T00:29:46.855Z,20.00
2023-03-20T00:32:15.620Z,21.60
2023-03-20T00:34:43.809Z,21.50
2023-03-20T00:37:15.661Z,21.70
2023-03-20T00:39:43.827Z,21.90
2023-03-20T00:42:22.388Z,21.90
2023-03-20T00:44:54.586Z,20.50
2023-03-20T00:47:25.834Z,21.20
2023-03-20T00:49:56.179Z,21.90
2023-03-20T00:52:25.488Z,21.40
2023-03-20T00:54:53.975Z,22.20
2023-03-20T00:57:27.286Z,23.10
2023-03-20T01:00:05.273Z,24.00
2023-03-20T01:02:34.708Z,24.10
2023-03-20T01:05:05.667Z,24.10
2023-03-20T01:07:34.188Z,25.90
2023-03-20T01:10:05.577Z,25.10
2023-03-20T01:12:34.010Z,23.00
2023-03-20T01:15:02.293Z,22.60
2023-03-20T01:17:30.562Z,21.60
2023-03-20T01:19:59.147Z,21.90
2023-03-20T01:22:28.868Z,23.80
2023-03-20T01:24:57.135Z,23.30
2023-03-20T01:27:25.406Z,22.70
2023-03-20T01:29:53.700Z,21.10
2023-03-20T01:32:21.858Z,21.80
2023-03-20T01:34:51.776Z,25.00
2023-03-20T01:37:27.998Z,23.10
2023-03-20T01:39:59.799Z,23.60
2023-03-20T01:42:28.954Z,22.50
2023-03-20T01:44:57.262Z,22.20
2023-03-20T01:47:27.905Z,21.70
2023-03-20T01:50:29.055Z,20.70
2023-03-20T01:53:07.388Z,19.70
2023-03-20T01:55:40.856Z,19.90
2023-03-20T01:58:17.705Z,20.50
2023-03-20T02:00:49.192Z,19.20
2023-03-20T02:03:19.209Z,19.40
2023-03-20T02:06:13.588Z,19.40
2023-03-20T02:09:05.417Z,18.70
2023-03-20T02:11:42.197Z,18.80
2023-03-20T02:14:10.875Z,19.30
2023-03-20T02:16:49.825Z,20.40
2023-03-20T02:19:48.909Z,19.70
2023-03-20T02:22:35.707Z,17.50
2023-03-20T02:25:15.804Z,18.00
2023-03-20T02:28:08.223Z,19.20
2023-03-20T02:30:40.417Z,18.40
2023-03-20T02:33:44.999Z,17.80
2023-03-20T02:36:28.939Z,18.40
2023-03-20T02:39:08.684Z,18.50
2023-03-20T02:41:42.859Z,18.90
2023-03-20T02:44:19.982Z,20.20
2023-03-20T02:47:03.005Z,19.10
2023-03-20T02:49:58.174Z,17.50
2023-03-20T02:52:57.187Z,17.40
2023-03-20T02:55:40.105Z,19.00
2023-03-20T03:00:51.981Z,16.40
2023-03-20T03:03:38.549Z,17.40
2023-03-20T03:06:12.861Z,17.90
2023-03-20T03:08:50.096Z,16.80
2023-03-20T03:11:18.745Z,19.20
2023-03-20T03:13:53.118Z,19.00
2023-03-20T03:16:31.405Z,17.90
2023-03-20T03:19:08.234Z,17.00
2023-03-20T03:21:39.478Z,18.60
2023-03-20T03:24:39.933Z,19.90
2023-03-20T03:27:18.533Z,18.40
2023-03-20T03:30:00.788Z,18.90
2023-03-20T03:32:36.222Z,19.10
2023-03-20T03:35:07.076Z,16.70
2023-03-20T03:37:59.249Z,18.10
2023-03-20T03:40:43.396Z,18.60
2023-03-20T03:43:31.612Z,19.50
2023-03-20T03:46:12.793Z,17.90
2023-03-20T03:48:49.408Z,18.20
2023-03-20T03:51:22.068Z,20.90
2023-03-20T03:54:03.149Z,21.90
2023-03-20T03:59:05.737Z,24.70
2023-03-20T04:04:09.873Z,25.20
2023-03-20T04:06:38.350Z,25.40
2023-03-20T04:09:08.674Z,24.30
2023-03-20T04:11:37.467Z,21.30
2023-03-20T04:14:05.942Z,22.00
2023-03-20T04:16:34.292Z,24.00
2023-03-20T04:19:03.526Z,23.20
2023-03-20T04:21:31.797Z,20.10
2023-03-20T04:23:59.972Z,20.20
2023-03-20T04:26:28.493Z,20.10
2023-03-20T04:28:57.852Z,20.10
2023-03-20T04:31:43.979Z,17.90
2023-03-20T04:34:12.300Z,19.10
2023-03-20T04:37:07.704Z,18.40
2023-03-20T04:40:01.886Z,17.40
2023-03-20T04:42:31.049Z,18.90
2023-03-20T04:45:03.585Z,20.10
2023-03-20T04:47:32.342Z,19.10
2023-03-20T04:50:00.888Z,18.50
2023-03-20T04:52:29.645Z,19.30
2023-03-20T04:54:57.765Z,19.90
2023-03-20T04:57:26.197Z,18.80
2023-03-20T04:59:55.913Z,19.70
2023-03-20T05:02:24.159Z,16.50
2023-03-20T05:04:52.355Z,17.30
2023-03-20T05:07:20.479Z,17.10
2023-03-20T05:09:57.102Z,13.90
2023-03-20T05:12:27.377Z,20.80
2023-03-20T05:15:16.490Z,21.10
2023-03-20T05:17:51.842Z,21.00
2023-03-20T05:20:20.206Z,20.90
2023-03-20T05:23:07.755Z,19.50
2023-03-20T05:26:06.674Z,16.60
2023-03-20T05:28:53.544Z,15.70
2023-03-20T05:34:17.944Z,17.80
2023-03-20T05:37:06.287Z,18.30
2023-03-20T05:39:54.655Z,14.60
2023-03-20T05:43:01.615Z,15.00
2023-03-20T05:45:49.807Z,14.50
2023-03-20T05:48:37.288Z,18.50
2023-03-20T05:51:24.301Z,17.90
2023-03-20T05:54:13.374Z,26.30
2023-03-20T05:57:20.141Z,30.00
2023-03-20T06:00:15.829Z,25.00
2023-03-20T06:02:47.778Z,32.00
2023-03-20T06:05:39.076Z,46.70
2023-03-20T06:08:07.417Z,12.50
2023-03-20T06:10:35.903Z,11.10
2023-03-20T06:13:04.184Z,13.70
2023-03-20T06:15:32.833Z,10.40
2023-03-20T06:18:10.872Z,11.30
2023-03-20T06:20:39.348Z,11.70
2023-03-20T06:23:07.827Z,10.20
2023-03-20T06:25:36.708Z,10.40
2023-03-20T06:28:05.713Z,11.60
2023-03-20T06:30:34.814Z,10.20
2023-03-20T06:33:04.020Z,10.70
2023-03-20T06:35:39.448Z,10.50
2023-03-20T06:38:08.034Z,10.60
2023-03-20T06:40:37.633Z,10.70
2023-03-20T06:43:06.216Z,28.70
2023-03-20T06:45:43.091Z,11.60
2023-03-20T06:48:24.370Z,11.80
2023-03-20T06:50:53.271Z,10.90
2023-03-20T06:53:24.200Z,11.50
2023-03-20T06:55:58.537Z,11.30
2023-03-20T06:58:27.407Z,9.40
2023-03-20T07:00:56.398Z,11.20
2023-03-20T07:03:24.891Z,17.60
2023-03-20T07:05:53.367Z,11.00
2023-03-20T07:08:21.748Z,11.30
2023-03-20T07:10:51.867Z,11.20
2023-03-20T07:13:20.855Z,11.20
2023-03-20T07:16:03.735Z,11.80
2023-03-20T07:18:37.328Z,11.90
2023-03-20T07:21:07.867Z,11.50
2023-03-20T07:23:36.614Z,11.90
2023-03-20T07:26:06.850Z,11.90
2023-03-20T07:28:35.208Z,12.10
2023-03-20T07:31:21.328Z,10.60
2023-03-20T07:33:51.014Z,11.60
2023-03-20T07:36:19.167Z,12.40
2023-03-20T07:38:48.060Z,11.70
2023-03-20T07:41:16.970Z,12.10
2023-03-20T07:46:47.470Z,13.10
2023-03-20T07:49:20.689Z,12.90
2023-03-20T07:51:50.704Z,12.20
2023-03-20T07:54:18.874Z,13.00
2023-03-20T07:56:47.970Z,13.80
2023-03-20T07:59:16.862Z,14.50
2023-03-20T08:01:45.502Z,14.00
2023-03-20T08:04:13.798Z,13.30
2023-03-20T08:06:43.855Z,13.50
2023-03-20T08:09:12.282Z,13.20
2023-03-20T08:11:40.824Z,14.00
2023-03-20T08:14:08.975Z,15.20
2023-03-20T08:16:37.263Z,15.80
2023-03-20T08:19:06.447Z,15.50
2023-03-20T08:21:34.839Z,15.00
2023-03-20T10:40:30.586Z,14.80
2023-03-20T10:43:24.714Z,13.10
2023-03-20T10:45:59.496Z,14.50
2023-03-20T10:48:50.102Z,13.80
2023-03-20T10:51:21.810Z,13.50
2023-03-20T10:53:53.827Z,13.00
2023-03-20T10:56:44.200Z,13.70
2023-03-20T10:59:18.126Z,13.60
2023-03-20T11:01:46.296Z,13.00
2023-03-20T11:04:14.842Z,14.80
2023-03-20T11:07:29.928Z,13.20
2023-03-20T11:10:04.826Z,12.80
2023-03-20T11:12:37.574Z,13.40
2023-03-20T11:15:28.727Z,14.00
2023-03-20T11:17:59.530Z,13.10
2023-03-20T11:20:34.782Z,12.50
2023-03-20T11:23:06.430Z,13.20
2023-03-20T11:25:38.957Z,13.00
2023-03-20T11:28:27.021Z,13.40
2023-03-20T11:31:04.797Z,13.40
2023-03-20T11:33:38.380Z,13.00
2023-03-20T11:39:07.811Z,12.60
2023-03-20T11:41:47.620Z,13.90
2023-03-20T11:44:22.937Z,13.00
2023-03-20T11:47:06.464Z,12.80
2023-03-20T11:49:47.979Z,11.90
2023-03-20T11:52:22.261Z,13.10
2023-03-20T11:54:54.857Z,12.90
2023-03-20T11:57:47.217Z,12.40
2023-03-20T12:00:21.619Z,29.00
2023-03-20T12:02:50.887Z,33.10
2023-03-20T12:05:37.316Z,14.40
2023-03-20T12:08:26.569Z,13.50
2023-03-20T12:11:00.647Z,12.10
2023-03-20T12:13:40.165Z,12.60
2023-03-20T12:16:16.555Z,12.70
2023-03-20T12:19:19.387Z,12.80
2023-03-20T12:22:15.810Z,13.30
2023-03-20T12:24:54.165Z,12.70
2023-03-20T12:27:36.356Z,14.80
2023-03-20T12:30:16.836Z,13.00
2023-03-20T12:33:06.722Z,12.80
2023-03-20T12:35:44.908Z,11.50
2023-03-20T12:38:30.703Z,12.60
2023-03-20T12:41:08.400Z,12.90
2023-03-20T12:43:56.505Z,12.40
2023-03-20T12:46:44.399Z,11.70
2023-03-20T12:49:20.773Z,13.30
2023-03-20T12:52:13.110Z,13.00
2023-03-20T12:55:03.130Z,12.40
2023-03-20T12:57:56.768Z,12.60
2023-03-20T13:00:34.519Z,25.70
2023-03-20T13:03:28.575Z,15.30
2023-03-20T13:06:13.555Z,12.10
2023-03-20T13:08:47.774Z,13.20
2023-03-20T13:11:22.178Z,12.20
2023-03-20T13:14:30.091Z,16.30
2023-03-20T13:17:03.277Z,13.10
2023-03-20T13:19:52.850Z,12.00
2023-03-20T13:22:54.508Z,13.00
2023-03-20T13:25:34.929Z,13.00
2023-03-20T13:28:31.141Z,26.90
2023-03-20T13:31:20.000Z,13.00
2023-03-20T13:33:57.449Z,12.30
2023-03-20T13:36:30.852Z,11.70
2023-03-20T13:39:13.055Z,11.50
2023-03-20T13:41:42.351Z,11.10
2023-03-20T13:44:13.372Z,11.10
2023-03-20T13:46:47.844Z,12.10
2023-03-20T13:49:34.416Z,12.10
2023-03-20T13:52:13.133Z,12.50
2023-03-20T13:55:24.111Z,12.40
2023-03-20T13:58:28.397Z,11.50
2023-03-20T14:01:07.839Z,11.50
2023-03-20T14:03:39.095Z,16.10
2023-03-20T14:06:32.384Z,16.70
2023-03-20T14:09:01.178Z,19.30
2023-03-20T14:11:35.748Z,11.70
2023-03-20T14:14:08.469Z,12.50
2023-03-20T14:16:36.761Z,12.80
2023-03-20T14:19:10.534Z,13.30
2023-03-20T14:21:40.667Z,11.70
2023-03-20T14:24:17.255Z,14.20
2023-03-20T14:26:50.823Z,12.70
2023-03-20T14:29:18.913Z,12.60
2023-03-20T14:31:52.332Z,14.00
2023-03-20T14:34:24.981Z,12.80
2023-03-20T14:37:31.046Z,13.20
2023-03-20T14:40:02.323Z,12.30
2023-03-20T14:43:01.391Z,12.20
2023-03-20T14:45:44.998Z,14.40
2023-03-20T14:48:25.284Z,12.50
2023-03-20T14:51:07.484Z,12.70
2023-03-20T14:53:35.759Z,13.50
2023-03-20T14:56:15.329Z,13.60
2023-03-20T14:58:43.810Z,14.00
2023-03-20T15:01:21.887Z,13.40
2023-03-20T15:03:59.217Z,13.00
2023-03-20T15:06:30.779Z,12.70
2023-03-20T15:09:05.157Z,12.10
2023-03-20T15:11:34.982Z,13.10
2023-03-20T15:14:07.021Z,12.50
2023-03-20T15:16:37.865Z,14.40
2023-03-20T15:19:19.664Z,13.30
2023-03-20T15:21:48.954Z,14.50
2023-03-20T15:24:29.519Z,14.40
2023-03-20T15:27:00.219Z,14.20
2023-03-20T15:29:30.366Z,14.10
2023-03-20T15:32:16.843Z,14.70
2023-03-20T15:34:47.715Z,15.00
2023-03-20T15:37:19.991Z,14.00
2023-03-20T15:39:54.092Z,13.90
2023-03-20T15:42:25.771Z,14.10
2023-03-20T15:44:56.036Z,13.20
2023-03-20T15:47:26.390Z,13.60
2023-03-20T15:49:57.345Z,12.60
2023-03-20T15:52:31.814Z,13.50
2023-03-20T15:55:07.447Z,16.10
2023-03-20T15:57:39.331Z,13.70
2023-03-20T16:00:20.441Z,13.80
2023-03-20T16:02:49.850Z,13.60
2023-03-20T16:05:21.505Z,15.20
2023-03-20T16:07:49.778Z,15.10
2023-03-20T16:10:18.157Z,14.80
2023-03-20T16:12:53.175Z,15.00
2023-03-20T16:15:25.748Z,14.60
2023-03-20T16:17:59.430Z,15.00
2023-03-20T16:20:33.352Z,14.80
2023-03-20T16:23:06.215Z,13.40
2023-03-20T16:25:36.501Z,14.10
2023-03-20T16:28:07.309Z,14.10
2023-03-20T16:30:36.930Z,13.60
2023-03-20T16:33:17.125Z,14.40
2023-03-20T16:35:49.227Z,14.30
2023-03-20T16:38:32.472Z,14.00
2023-03-20T16:41:30.987Z,13.30
2023-03-20T16:43:59.327Z,14.30
2023-03-20T16:46:28.725Z,15.90
2023-03-20T16:49:02.118Z,15.30
2023-03-20T16:51:31.643Z,16.70
2023-03-20T16:54:01.667Z,15.10
2023-03-20T16:56:37.042Z,15.20
2023-03-20T16:59:18.398Z,16.20
2023-03-20T17:01:48.693Z,14.60
2023-03-20T17:04:39.416Z,14.50
2023-03-20T17:07:28.460Z,13.80
2023-03-20T17:10:25.410Z,14.10
2023-03-20T17:12:54.304Z,15.60
2023-03-20T17:15:24.478Z,15.40
2023-03-20T17:17:52.701Z,14.00
2023-03-20T17:20:24.312Z,15.70
2023-03-20T17:22:53.245Z,14.60
2023-03-20T17:25:22.251Z,13.30
2023-03-20T17:27:50.816Z,14.60
2023-03-20T17:30:21.808Z,14.60
2023-03-20T17:32:50.877Z,15.10
2023-03-20T17:35:20.096Z,14.70
2023-03-20T17:37:49.150Z,15.50
2023-03-20T17:40:20.592Z,14.10
2023-03-20T17:42:49.173Z,15.70
2023-03-20T17:45:20.667Z,15.70
2023-03-20T17:47:49.493Z,16.30
2023-03-20T17:50:28.132Z,16.10
2023-03-20T17:52:56.311Z,16.00
2023-03-20T17:55:24.583Z,17.10
2023-03-20T17:57:53.960Z,16.80
2023-03-20T18:00:24.480Z,16.70
2023-03-20T18:02:52.794Z,16.80
2023-03-20T18:05:21.351Z,19.40
2023-03-20T18:07:49.709Z,50.40
2023-03-20T18:10:32.325Z,42.40
2023-03-20T18:13:01.666Z,25.50
2023-03-20T18:15:30.099Z,28.50
2023-03-20T18:17:58.437Z,42.70
2023-03-20T18:20:34.017Z,50.20
2023-03-20T18:23:02.872Z,70.30
2023-03-20T18:25:31.137Z,82.10
2023-03-20T18:28:00.851Z,69.60
2023-03-20T18:30:41.426Z,94.70
2023-03-20T18:33:10.252Z,115.80
2023-03-20T18:35:38.640Z,76.70
2023-03-20T18:38:06.951Z,56.80
2023-03-20T18:40:37.273Z,40.40
2023-03-20T18:43:06.244Z,34.50
2023-03-20T18:45:34.465Z,29.40
2023-03-20T18:48:04.029Z,25.70
2023-03-20T18:50:38.248Z,23.30
2023-03-20T18:53:07.843Z,21.40
2023-03-20T18:55:37.044Z,51.60
2023-03-20T18:58:06.533Z,22.40
2023-03-20T19:00:40.557Z,22.40
2023-03-20T19:03:11.316Z,32.70
2023-03-20T19:05:39.394Z,27.90
2023-03-20T19:08:08.186Z,25.20
2023-03-20T19:10:44.045Z,25.40
2023-03-20T19:13:17.891Z,50.90
2023-03-20T19:15:46.463Z,65.50
2023-03-20T19:18:17.908Z,61.30
2023-03-20T19:20:55.761Z,61.20
2023-03-20T19:23:26.060Z,52.60
2023-03-20T19:25:55.706Z,38.60
2023-03-20T19:28:39.228Z,36.60
2023-03-20T19:31:10.114Z,35.50
2023-03-20T19:33:39.796Z,39.60
2023-03-20T19:36:20.502Z,38.50
2023-03-20T19:38:49.030Z,35.10
2023-03-20T19:41:19.869Z,46.50
2023-03-20T19:43:53.406Z,43.80
2023-03-20T19:46:42.054Z,40.20
2023-03-20T19:49:24.951Z,41.70
2023-03-20T19:51:58.138Z,40.90
2023-03-20T19:54:28.857Z,36.00
2023-03-20T19:56:57.548Z,35.30
2023-03-20T19:59:26.159Z,35.40
2023-03-20T20:01:55.117Z,32.80
2023-03-20T20:04:23.704Z,32.40
2023-03-20T20:06:55.474Z,32.70
2023-03-20T20:09:26.925Z,32.10
2023-03-20T20:11:55.300Z,46.30
2023-03-20T20:14:24.094Z,27.50
2023-03-20T20:16:55.963Z,28.00
2023-03-20T20:19:24.724Z,29.00
2023-03-20T20:24:41.546Z,27.60
2023-03-20T20:27:18.792Z,27.00
2023-03-20T20:29:49.826Z,28.10
2023-03-20T20:32:21.333Z,28.70
2023-03-20T20:38:27.066Z,26.10
2023-03-20T20:40:31.189Z,22.40
2023-03-20T20:43:02.440Z,22.90
2023-03-20T20:45:34.642Z,23.30
2023-03-20T20:48:06.586Z,25.10
2023-03-20T20:50:36.509Z,25.10
2023-03-20T20:53:05.504Z,24.10
2023-03-20T20:55:33.977Z,24.90
2023-03-20T20:58:04.089Z,25.60
2023-03-20T21:00:48.501Z,24.90
2023-03-20T21:03:18.361Z,28.70
2023-03-20T21:05:46.533Z,27.60
2023-03-20T21:08:16.475Z,26.80
2023-03-20T21:10:46.301Z,23.10
2023-03-20T21:13:15.936Z,23.50
2023-03-20T21:15:45.780Z,25.10
2023-03-20T21:18:14.811Z,27.00
2023-03-20T21:20:43.170Z,25.70
2023-03-20T21:23:11.860Z,23.70
2023-03-20T21:25:42.054Z,25.40
2023-03-20T21:28:11.773Z,23.70
2023-03-20T21:30:51.056Z,24.40
2023-03-20T21:33:32.220Z,23.10
2023-03-20T21:36:00.838Z,24.20
2023-03-20T21:41:18.323Z,26.80
2023-03-20T21:43:47.541Z,27.00
2023-03-20T22:01:14.449Z,25.40
2023-03-20T22:03:28.929Z,25.10
2023-03-20T22:27:01.673Z,23.50
2023-03-20T22:32:10.902Z,23.90
2023-03-20T22:43:01.123Z,22.40
2023-03-20T22:45:42.869Z,21.40
2023-03-20T22:48:12.840Z,23.70
2023-03-20T22:50:41.530Z,22.30
2023-03-20T22:53:09.987Z,22.70
2023-03-20T22:55:41.428Z,22.10
2023-03-20T22:58:11.347Z,24.00
2023-03-20T23:00:39.988Z,22.90
2023-03-20T23:05:58.087Z,22.00
2023-03-20T23:08:27.887Z,22.60
2023-03-20T23:10:56.690Z,21.50
2023-03-20T23:13:24.978Z,19.50
2023-03-20T23:15:53.136Z,19.40
2023-03-20T23:18:21.618Z,20.00
2023-03-20T23:20:50.106Z,21.70
2023-03-20T23:23:18.583Z,21.20
2023-03-20T23:25:47.366Z,21.60
2023-03-20T23:28:15.749Z,22.10
2023-03-20T23:30:51.784Z,22.00
2023-03-20T23:33:24.902Z,21.80
2023-03-20T23:36:14.003Z,20.50
2023-03-20T23:38:44.808Z,21.90
2023-03-20T23:41:14.149Z,20.00
2023-03-20T23:43:43.102Z,20.40
2023-03-20T23:46:11.807Z,19.70
2023-03-20T23:48:40.256Z,19.40
2023-03-20T23:51:08.538Z,20.30
2023-03-20T23:53:37.949Z,21.10
2023-03-20T23:56:07.959Z,19.60
2023-03-20T23:58:39.468Z,20.30
